Time;durP1;ratioP1;P1;durP2;ratioP2;P2;SDS_P1;SDS_P2;PMS_P1;PMS_P2;Temp;Humidity;BMP_temperature;BMP_pressure;BME280_temperature;BME280_humidity;BME280_pressure;Samples;Min_cycle;Max_cycle;Signal;HPM_P1;HPM_P2
2022/03/10 00:02:22;;;;;;;14.33;8.33;;;;;;;-0.16;74.46;102147.69;1688193;84;25821;-77
2022/03/10 00:04:48;;;;;;;12.03;7.53;;;;;;;-0.21;74.51;102143.12;1703014;84;28271;-75
2022/03/10 00:07:15;;;;;;;15.43;8.65;;;;;;;-0.24;74.75;102153.83;1684429;84;25808;-75
2022/03/10 00:09:41;;;;;;;14.63;8.40;;;;;;;-0.27;74.74;102150.89;1688549;84;25766;-75
2022/03/10 00:12:08;;;;;;;16.90;8.30;;;;;;;-0.34;74.88;102154.77;1676576;84;26525;-75
2022/03/10 00:14:34;;;;;;;18.40;8.73;;;;;;;-0.39;74.92;102153.31;1676910;84;26581;-76
2022/03/10 00:17:01;;;;;;;15.48;8.23;;;;;;;-0.42;74.93;102158.72;1676806;84;27462;-75
2022/03/10 00:19:27;;;;;;;16.17;8.38;;;;;;;-0.43;75.24;102161.84;1711714;83;25983;-75
2022/03/10 00:21:53;;;;;;;19.23;9.25;;;;;;;-0.45;75.13;102160.21;1687988;84;26528;-75
2022/03/10 00:24:19;;;;;;;14.25;8.15;;;;;;;-0.49;75.39;102162.61;1692774;83;25817;-75
2022/03/10 00:26:46;;;;;;;16.02;8.80;;;;;;;-0.56;75.40;102162.08;1695537;83;26291;-75
2022/03/10 00:29:13;;;;;;;18.32;9.73;;;;;;;-0.63;75.56;102158.50;1687116;84;27651;-76
2022/03/10 00:31:42;;;;;;;15.85;8.23;;;;;;;-0.68;75.67;102173.20;1683552;84;26680;-75
2022/03/10 00:34:09;;;;;;;18.75;9.25;;;;;;;-0.70;75.89;102167.16;1701638;83;26534;-76
2022/03/10 00:36:35;;;;;;;15.40;8.50;;;;;;;-0.74;76.11;102172.65;1696720;83;26498;-75
2022/03/10 00:39:04;;;;;;;15.45;9.20;;;;;;;-0.77;76.04;102168.42;1705016;83;25290;-76
2022/03/10 00:41:31;;;;;;;18.15;8.50;;;;;;;-0.79;76.06;102167.61;1701728;83;27440;-75
2022/03/10 00:43:57;;;;;;;17.85;9.33;;;;;;;-0.79;76.22;102180.31;1686433;84;25823;-75
2022/03/10 00:46:24;;;;;;;19.85;9.30;;;;;;;-0.83;76.01;102177.45;1718977;83;26403;-76
2022/03/10 00:48:50;;;;;;;17.42;8.78;;;;;;;-0.84;76.12;102184.97;1715177;83;25817;-76
2022/03/10 00:51:17;;;;;;;16.20;8.58;;;;;;;-0.90;76.14;102181.30;1698315;84;25887;-76
2022/03/10 00:53:44;;;;;;;18.95;9.88;;;;;;;-0.92;76.47;102186.27;1699450;84;27532;-77
2022/03/10 00:56:10;;;;;;;17.10;8.93;;;;;;;-0.97;76.28;102186.49;1701125;83;26473;-76
2022/03/10 00:58:36;;;;;;;17.60;9.53;;;;;;;-0.97;76.44;102197.02;1695866;83;26159;-75
2022/03/10 01:01:02;;;;;;;14.87;9.20;;;;;;;-0.96;76.42;102201.33;1749117;81;26544;-77
2022/03/10 01:03:29;;;;;;;19.52;9.23;;;;;;;-0.98;76.44;102204.95;1747001;81;25771;-75
2022/03/10 01:05:55;;;;;;;15.00;8.15;;;;;;;-1.00;76.39;102202.86;1750148;81;28032;-75
2022/03/10 01:08:21;;;;;;;18.62;9.75;;;;;;;-1.02;76.40;102212.61;1750212;80;25968;-76
2022/03/10 01:10:47;;;;;;;17.12;9.90;;;;;;;-1.01;76.42;102211.70;1747887;80;25815;-76
2022/03/10 01:13:17;;;;;;;16.67;9.15;;;;;;;-1.03;76.34;102215.72;1748378;81;25956;-76
2022/03/10 01:15:46;;;;;;;15.75;8.65;;;;;;;-1.07;76.46;102224.66;1748248;81;26154;-75
2022/03/10 01:18:14;;;;;;;20.37;10.05;;;;;;;-1.07;76.59;102224.66;1748375;81;27468;-76
2022/03/10 01:20:41;;;;;;;17.30;10.00;;;;;;;-1.11;76.59;102226.22;1751759;81;25926;-76
2022/03/10 01:23:10;;;;;;;18.45;10.25;;;;;;;-1.11;76.46;102227.53;1747164;81;25788;-76
2022/03/10 01:25:37;;;;;;;21.60;10.03;;;;;;;-1.09;76.56;102233.08;1711507;83;26322;-75
2022/03/10 01:28:03;;;;;;;18.05;9.38;;;;;;;-1.09;76.50;102239.66;1711170;83;25724;-76
2022/03/10 01:30:31;;;;;;;18.40;8.75;;;;;;;-1.11;76.29;102238.05;1696530;84;28110;-76
2022/03/10 01:32:57;;;;;;;20.90;10.45;;;;;;;-1.14;76.19;102239.50;1750272;81;25284;-75
2022/03/10 01:35:24;;;;;;;19.75;10.45;;;;;;;-1.13;76.18;102251.70;1746112;81;25806;-76
2022/03/10 01:37:50;;;;;;;20.55;9.80;;;;;;;-1.17;76.18;102256.26;1750293;80;25819;-75
2022/03/10 01:40:18;;;;;;;16.37;8.45;;;;;;;-1.21;76.07;102257.78;1746276;81;25934;-75
2022/03/10 01:42:47;;;;;;;20.25;10.35;;;;;;;-1.23;76.32;102263.13;1748728;81;27554;-75
2022/03/10 01:45:14;;;;;;;13.10;8.40;;;;;;;-1.33;76.21;102250.48;1726507;81;26516;-76
2022/03/10 01:47:42;;;;;;;21.97;11.95;;;;;;;-1.29;76.33;102261.23;1747299;81;26612;-76
2022/03/10 01:50:13;;;;;;;18.05;9.58;;;;;;;-1.31;76.36;102259.14;1741750;82;26567;-76
2022/03/10 01:52:41;;;;;;;19.40;9.88;;;;;;;-1.41;76.42;102253.44;1732172;82;25775;-76
2022/03/10 01:55:09;;;;;;;18.65;8.90;;;;;;;-1.41;76.42;102253.44;1732010;81;28379;-76
2022/03/10 01:57:35;;;;;;;20.17;9.63;;;;;;;-1.38;76.46;102262.97;1741807;82;26368;-75
2022/03/10 02:00:05;;;;;;;18.57;10.58;;;;;;;-1.38;76.46;102262.97;1739637;82;25861;-76
2022/03/10 02:02:31;;;;;;;16.10;8.90;;;;;;;-1.42;76.37;102267.52;1731570;82;26479;-77
2022/03/10 02:04:57;;;;;;;17.85;9.85;;;;;;;-1.44;76.36;102269.37;1738960;82;25882;-76
2022/03/10 02:10:18;;;;;;;18.60;9.83;;;;;;;-1.45;76.40;102266.82;1738483;81;25888;-75
2022/03/10 02:12:54;;;;;;;16.42;10.03;;;;;;;-1.42;76.27;102273.23;1742941;82;25864;-75
2022/03/10 02:18:09;;;;;;;18.57;9.55;;;;;;;-1.46;75.89;102283.05;1733623;82;25795;-75
2022/03/10 02:20:37;;;;;;;17.42;9.38;;;;;;;-1.50;76.10;102284.56;1735622;82;28301;-76
2022/03/10 02:23:06;;;;;;;16.50;9.13;;;;;;;-1.56;76.05;102283.91;1731125;81;25799;-75
2022/03/10 02:25:34;;;;;;;18.95;9.35;;;;;;;-1.62;76.13;102286.80;1739499;82;26501;-76
2022/03/10 02:28:00;;;;;;;19.02;9.13;;;;;;;-1.66;76.66;102283.92;1735711;81;25731;-75
2022/03/10 02:30:30;;;;;;;17.52;8.68;;;;;;;-1.68;76.44;102288.84;1738127;82;25885;-77
2022/03/10 02:32:58;;;;;;;19.17;9.98;;;;;;;-1.71;76.49;102296.88;1741133;81;27424;-76
2022/03/10 02:35:25;;;;;;;20.82;9.63;;;;;;;-1.74;76.36;102301.80;1733517;82;25931;-76
2022/03/10 02:37:52;;;;;;;16.90;9.73;;;;;;;-1.76;76.48;102305.41;1739327;80;26445;-75
2022/03/10 02:40:18;;;;;;;17.80;8.75;;;;;;;-1.81;76.41;102296.42;1739038;81;25827;-75
2022/03/10 02:42:44;;;;;;;21.15;9.95;;;;;;;-1.83;76.41;102300.02;1739129;81;25936;-76
2022/03/10 02:45:12;;;;;;;22.52;9.53;;;;;;;-1.88;76.38;102306.78;1729791;82;27457;-75
2022/03/10 02:47:38;;;;;;;18.85;10.38;;;;;;;-1.90;76.51;102312.56;1730555;82;25889;-76
2022/03/10 02:50:07;;;;;;;21.82;10.88;;;;;;;-1.89;76.35;102312.97;1744955;81;25840;-75
2022/03/10 02:52:37;;;;;;;18.98;9.85;;;;;;;-1.89;76.42;102326.55;1743527;81;25798;-75
2022/03/10 02:55:05;;;;;;;;;;;;;;;-1.88;76.27;102329.59;1750601;81;25780;-75
2022/03/10 02:57:32;;;;;;;16.52;7.92;;;;;;;-1.93;76.30;102335.48;1683389;84;27488;-76
2022/03/10 03:00:03;;;;;;;19.15;10.23;;;;;;;-1.99;76.52;102342.31;1688350;84;25814;-75
2022/03/10 03:02:29;;;;;;;14.03;8.30;;;;;;;-2.02;76.54;102348.99;1717937;83;25932;-75
2022/03/10 03:04:55;;;;;;;20.40;10.28;;;;;;;-2.08;76.75;102346.18;1692654;84;26486;-77
2022/03/10 03:07:22;;;;;;;19.60;8.58;;;;;;;-2.11;76.72;102344.12;1704614;82;26650;-75
2022/03/10 03:09:48;;;;;;;18.27;9.00;;;;;;;-2.12;76.81;102351.62;1700695;83;27456;-76
2022/03/10 03:12:14;;;;;;;13.75;9.18;;;;;;;-2.13;76.70;102360.39;1698963;83;25872;-75
2022/03/10 03:14:40;;;;;;;14.95;7.55;;;;;;;-2.16;76.87;102360.54;1686953;84;26357;-75
2022/03/10 03:17:06;;;;;;;16.62;9.30;;;;;;;-2.20;76.86;102361.59;1696846;83;25739;-76
2022/03/10 03:19:33;;;;;;;18.60;9.45;;;;;;;-2.26;76.82;102364.43;1716941;83;25760;-76
2022/03/10 03:21:59;;;;;;;18.15;8.25;;;;;;;-2.29;76.88;102364.58;1685809;84;27624;-76
2022/03/10 03:24:25;;;;;;;21.93;9.48;;;;;;;-2.32;76.96;102368.63;1697305;83;25987;-76
2022/03/10 03:26:52;;;;;;;17.40;9.38;;;;;;;-2.36;77.10;102374.02;1687360;83;25742;-75
2022/03/10 03:29:18;;;;;;;18.48;8.03;;;;;;;-2.39;76.94;102382.00;1702333;83;25842;-76
2022/03/10 03:31:44;;;;;;;17.65;9.18;;;;;;;-2.45;77.07;102377.45;1690436;84;25926;-75
2022/03/10 03:34:11;;;;;;;18.70;9.73;;;;;;;-2.45;77.07;102377.45;1706258;83;28002;-75
2022/03/10 03:36:40;;;;;;;16.00;8.25;;;;;;;-2.44;77.14;102388.35;1706743;83;26420;-76
2022/03/10 03:39:08;;;;;;;17.70;7.70;;;;;;;-2.46;77.01;102383.63;1687365;83;25755;-76
2022/03/10 03:41:35;;;;;;;16.80;8.28;;;;;;;-2.51;77.06;102396.06;1688421;84;26495;-75
2022/03/10 03:44:01;;;;;;;16.85;8.98;;;;;;;-2.51;77.06;102396.06;1676550;84;25312;-76
2022/03/10 03:46:27;;;;;;;16.52;8.68;;;;;;;-2.54;76.96;102406.20;1712088;81;28341;-76
2022/03/10 03:48:55;;;;;;;21.65;9.43;;;;;;;-2.55;76.88;102407.59;1716335;83;26460;-75
2022/03/10 03:51:22;;;;;;;18.95;8.95;;;;;;;-2.52;76.81;102412.70;1687734;84;25813;-76
2022/03/10 03:53:49;;;;;;;16.93;9.13;;;;;;;-2.54;76.68;102411.91;1701833;84;26293;-75
2022/03/10 03:56:16;;;;;;;14.83;7.47;;;;;;;-2.58;76.63;102412.48;1702389;84;25940;-76
2022/03/10 03:58:43;;;;;;;15.95;8.83;;;;;;;-2.60;76.76;102420.88;1685037;84;28265;-76
2022/03/10 04:01:10;;;;;;;18.87;8.90;;;;;;;-2.63;76.69;102414.91;1686661;84;25959;-75
2022/03/10 04:03:37;;;;;;;15.18;8.23;;;;;;;-2.65;76.78;102420.19;1687901;84;26148;-76
2022/03/10 04:06:04;;;;;;;13.98;7.67;;;;;;;-2.68;76.67;102419.02;1711628;83;25816;-75
2022/03/10 04:08:30;;;;;;;17.95;8.75;;;;;;;-2.82;76.74;102416.03;1712637;82;26502;-75
2022/03/10 04:10:57;;;;;;;19.10;9.43;;;;;;;-2.82;76.74;102416.03;1711937;83;28260;-76
2022/03/10 04:13:23;;;;;;;19.27;8.05;;;;;;;-2.79;76.91;102429.05;1710691;83;25731;-75
2022/03/10 04:15:51;;;;;;;18.73;9.55;;;;;;;-2.80;76.94;102431.25;1720613;83;25336;-76
2022/03/10 04:18:18;;;;;;;18.25;8.95;;;;;;;-2.91;76.99;102428.20;1717639;83;25902;-75
2022/03/10 04:20:46;;;;;;;13.15;7.80;;;;;;;-2.91;76.99;102428.20;1717040;83;25825;-76
2022/03/10 04:23:14;;;;;;;15.38;8.30;;;;;;;-2.89;77.17;102436.00;1675907;84;27456;-76
2022/03/10 04:25:41;;;;;;;15.20;8.68;;;;;;;-2.99;76.94;102430.70;1694202;84;25515;-76
2022/03/10 04:28:08;;;;;;;18.57;9.63;;;;;;;-2.99;76.94;102430.70;1683678;84;25831;-75
2022/03/10 04:30:37;;;;;;;17.65;8.78;;;;;;;-2.96;76.98;102444.99;1683371;84;25767;-76
2022/03/10 04:33:03;;;;;;;17.32;8.50;;;;;;;-2.99;76.81;102444.64;1682559;84;25793;-76
2022/03/10 04:35:30;;;;;;;16.75;8.40;;;;;;;-2.98;76.88;102448.99;1683239;84;27433;-76
2022/03/10 04:37:56;;;;;;;15.60;8.68;;;;;;;-2.99;76.80;102459.54;1683446;84;26824;-76
2022/03/10 04:40:23;;;;;;;18.00;8.58;;;;;;;-3.05;76.76;102442.70;1687705;84;25849;-76
2022/03/10 04:42:50;;;;;;;16.15;7.83;;;;;;;-3.01;76.49;102456.95;1689994;84;25773;-75
2022/03/10 04:45:17;;;;;;;15.38;7.05;;;;;;;-3.05;76.50;102461.05;1686338;83;25582;-75
2022/03/10 04:47:43;;;;;;;21.73;9.58;;;;;;;-3.08;76.53;102459.86;1713998;83;27457;-76
2022/03/10 04:50:13;;;;;;;15.60;8.73;;;;;;;-3.13;76.45;102471.81;1687118;84;26051;-76
2022/03/10 04:52:39;;;;;;;18.05;8.55;;;;;;;-3.18;76.26;102478.97;1716822;82;25988;-75
2022/03/10 04:55:07;;;;;;;17.20;7.90;;;;;;;-3.18;76.26;102478.97;1714311;83;26299;-75
2022/03/10 04:57:34;;;;;;;19.02;9.45;;;;;;;-3.16;76.20;102486.33;1690429;83;25735;-75
2022/03/10 05:00:10;;;;;;;17.12;8.33;;;;;;;-3.17;76.11;102488.56;1706425;83;27572;-76
2022/03/10 05:02:38;;;;;;;17.77;8.23;;;;;;;;;;1683133;84;25653;-76
2022/03/10 05:05:07;;;;;;;17.50;8.38;;;;;;;-3.19;75.89;102491.69;1692395;84;25873;-76
2022/03/10 05:07:33;;;;;;;18.65;8.85;;;;;;;-3.20;75.75;102492.14;1716808;83;26540;-75
2022/03/10 05:10:00;;;;;;;14.75;8.30;;;;;;;-3.22;75.74;102511.00;1686310;83;25829;-76
2022/03/10 05:12:26;;;;;;;16.87;7.95;;;;;;;-3.24;75.62;102508.02;1710226;83;28265;-75
2022/03/10 05:14:53;;;;;;;17.07;8.73;;;;;;;-3.25;75.65;102515.49;1683662;84;26559;-76
2022/03/10 05:17:21;;;;;;;17.62;8.40;;;;;;;-3.24;75.58;102518.50;1697861;83;26576;-76
2022/03/10 05:19:47;;;;;;;16.85;8.60;;;;;;;-3.26;75.31;102521.19;1681878;84;25782;-76
2022/03/10 05:22:13;;;;;;;20.92;9.10;;;;;;;-3.24;75.79;102528.98;1688485;84;25875;-75
2022/03/10 05:24:39;;;;;;;18.23;8.03;;;;;;;-3.22;75.44;102523.23;1704655;83;27651;-76
2022/03/10 05:27:06;;;;;;;15.83;7.95;;;;;;;-3.28;75.38;102523.00;1706579;83;25810;-76
2022/03/10 05:29:32;;;;;;;21.65;8.98;;;;;;;-3.28;75.38;102523.00;1701102;83;25893;-77
2022/03/10 05:31:58;;;;;;;18.73;8.25;;;;;;;-3.23;75.25;102542.50;1705360;83;26620;-76
2022/03/10 05:34:25;;;;;;;16.85;8.70;;;;;;;-3.25;75.22;102546.46;1713671;82;25797;-76
2022/03/10 05:36:51;;;;;;;16.97;8.30;;;;;;;-3.25;75.22;102554.32;1714677;81;27456;-76
2022/03/10 05:39:17;;;;;;;14.50;7.70;;;;;;;-3.28;75.22;102552.27;1690550;84;25917;-75
2022/03/10 05:41:44;;;;;;;15.03;8.15;;;;;;;-3.30;75.16;102552.33;1694340;83;26631;-75
2022/03/10 05:44:10;;;;;;;16.17;7.87;;;;;;;-3.41;75.36;102546.59;1681785;84;26519;-76
2022/03/10 05:46:36;;;;;;;14.38;7.55;;;;;;;-3.41;75.36;102546.59;1692336;83;25832;-76
2022/03/10 05:49:02;;;;;;;18.70;7.72;;;;;;;-3.36;75.25;102556.92;1706985;82;28271;-76
2022/03/10 05:51:28;;;;;;;15.48;6.97;;;;;;;-3.36;75.24;102566.91;1703268;83;25926;-76
2022/03/10 05:53:55;;;;;;;18.17;8.38;;;;;;;-3.35;75.16;102566.47;1701948;83;25773;-76
2022/03/10 05:56:21;;;;;;;19.37;8.63;;;;;;;-3.35;75.20;102572.58;1708673;83;26536;-78
2022/03/10 05:58:47;;;;;;;14.40;7.83;;;;;;;-3.35;75.14;102570.41;1712379;83;25774;-75
2022/03/10 06:01:14;;;;;;;17.10;7.12;;;;;;;-3.34;75.13;102576.92;1705655;83;28352;-77
2022/03/10 06:03:41;;;;;;;16.02;7.37;;;;;;;-3.34;75.12;102586.09;1707222;83;25514;-75
2022/03/10 06:06:11;;;;;;;16.73;8.28;;;;;;;-3.34;75.16;102587.85;1705152;83;25992;-75
2022/03/10 06:08:37;;;;;;;12.47;7.55;;;;;;;-3.31;75.22;102596.91;1712711;83;26633;-76
2022/03/10 06:11:04;;;;;;;17.42;7.62;;;;;;;-3.28;75.10;102599.44;1687461;84;25799;-76
2022/03/10 06:13:30;;;;;;;16.42;7.25;;;;;;;-3.25;75.03;102604.59;1675533;84;28288;-75
2022/03/10 06:15:56;;;;;;;13.85;7.35;;;;;;;-3.22;74.84;102612.33;1673608;84;25836;-76
2022/03/10 06:18:23;;;;;;;16.02;7.22;;;;;;;-3.18;74.92;102613.94;1710333;82;25874;-77
2022/03/10 06:20:49;;;;;;;11.48;6.53;;;;;;;-3.12;74.74;102623.39;1687719;84;25789;-76
2022/03/10 06:23:15;;;;;;;12.35;6.50;;;;;;;-3.12;74.50;102622.91;1686469;84;25947;-75
2022/03/10 06:25:41;;;;;;;13.00;6.47;;;;;;;-3.10;74.39;102621.57;1686595;84;27443;-77
2022/03/10 06:28:09;;;;;;;16.52;8.23;;;;;;;-3.06;74.24;102629.73;1703647;83;25801;-76
2022/03/10 06:30:36;;;;;;;12.43;5.75;;;;;;;-3.03;74.43;102630.92;1718172;83;26579;-76
2022/03/10 06:33:02;;;;;;;14.40;6.95;;;;;;;-2.99;74.31;102637.80;1692058;84;25846;-76
2022/03/10 06:35:29;;;;;;;16.27;7.60;;;;;;;-2.93;74.43;102638.42;1693661;83;25738;-75
2022/03/10 06:37:55;;;;;;;14.65;7.33;;;;;;;-2.87;74.00;102645.25;1689510;83;27726;-76
2022/03/10 06:40:21;;;;;;;15.23;6.53;;;;;;;-2.82;73.97;102640.72;1718611;83;25912;-76
2022/03/10 06:42:47;;;;;;;23.65;13.20;;;;;;;-2.76;73.67;102648.38;1715374;83;25328;-75
2022/03/10 06:45:14;;;;;;;19.30;9.18;;;;;;;-2.74;73.45;102648.73;1714031;83;25875;-75
2022/03/10 06:47:40;;;;;;;17.42;8.40;;;;;;;-2.68;73.48;102647.65;1718484;83;26099;-76
2022/03/10 06:50:07;;;;;;;16.65;7.85;;;;;;;-2.63;73.00;102656.23;1709090;83;27718;-76
2022/03/10 06:52:34;;;;;;;15.85;7.70;;;;;;;-2.59;73.38;102660.45;1680907;83;25938;-80
2022/03/10 06:55:00;;;;;;;14.83;8.28;;;;;;;-2.48;72.94;102663.09;1673597;83;25898;-77
2022/03/10 06:57:26;;;;;;;18.45;10.48;;;;;;;-2.48;72.94;102663.09;1716862;82;26591;-78
2022/03/10 06:59:52;;;;;;;11.33;6.65;;;;;;;-2.32;72.78;102670.42;1710792;82;25824;-78
2022/03/10 07:02:19;;;;;;;14.30;7.15;;;;;;;-2.32;72.78;102670.42;1677540;84;28277;-78
2022/03/10 07:04:45;;;;;;;13.68;6.20;;;;;;;-2.15;72.27;102664.98;1679866;84;25853;-78
2022/03/10 07:07:11;;;;;;;12.55;6.80;;;;;;;-2.15;72.27;102664.98;1698342;83;25930;-78
2022/03/10 07:09:37;;;;;;;19.15;7.83;;;;;;;-2.12;71.70;102662.26;1678291;84;26196;-75
2022/03/10 07:12:05;;;;;;;15.32;6.87;;;;;;;-2.07;71.72;102663.38;1683787;84;25863;-75
2022/03/10 07:14:31;;;;;;;15.95;7.03;;;;;;;-2.00;72.03;102667.50;1676603;84;28177;-77
2022/03/10 07:16:57;;;;;;;14.33;6.70;;;;;;;-1.92;71.72;102673.31;1687575;83;25879;-75
2022/03/10 07:19:23;;;;;;;13.78;7.35;;;;;;;-1.86;70.97;102673.12;1715786;82;26471;-75
2022/03/10 07:21:49;;;;;;;15.83;6.78;;;;;;;-1.80;71.23;102671.13;1688779;84;25802;-74
2022/03/10 07:24:15;;;;;;;12.53;6.10;;;;;;;-1.70;70.90;102668.53;1679476;84;25940;-75
2022/03/10 07:26:42;;;;;;;12.58;6.95;;;;;;;-1.64;70.83;102672.69;1711682;82;27487;-75
2022/03/10 07:29:08;;;;;;;14.18;7.03;;;;;;;-1.58;69.88;102669.82;1719028;83;25908;-78
2022/03/10 07:31:34;;;;;;;13.38;7.03;;;;;;;-1.55;69.51;102669.72;1679157;84;26623;-77
2022/03/10 07:34:01;;;;;;;11.25;6.58;;;;;;;-1.50;70.12;102669.09;1675530;84;26543;-77
2022/03/10 07:36:27;;;;;;;12.05;6.78;;;;;;;-1.44;69.44;102673.23;1709441;82;25745;-77
2022/03/10 07:38:53;;;;;;;12.60;6.05;;;;;;;-1.37;69.23;102673.41;1678458;84;27656;-77
2022/03/10 07:41:20;;;;;;;12.63;6.65;;;;;;;-1.33;68.92;102670.60;1712155;83;26066;-77
2022/03/10 07:43:46;;;;;;;14.68;6.87;;;;;;;-1.27;68.72;102668.17;1715794;82;26004;-75
2022/03/10 07:46:12;;;;;;;8.60;5.28;;;;;;;-1.14;68.89;102678.60;1713454;82;26524;-76
2022/03/10 07:48:38;;;;;;;9.78;6.20;;;;;;;-1.07;67.60;102678.28;1691246;84;25847;-76
2022/03/10 07:51:05;;;;;;;11.08;5.85;;;;;;;-1.00;67.92;102673.63;1683501;83;27449;-76
2022/03/10 07:53:32;;;;;;;11.53;5.75;;;;;;;-0.93;66.55;102675.96;1694619;84;25882;-76
2022/03/10 07:55:58;;;;;;;13.58;7.00;;;;;;;-0.88;66.57;102673.15;1742334;81;25784;-76
2022/03/10 07:58:29;;;;;;;15.08;7.55;;;;;;;-0.81;66.54;102672.81;1737549;80;26571;-76
2022/03/10 08:00:55;;;;;;;18.37;8.38;;;;;;;-0.72;66.89;102673.34;1743010;81;26291;-76
2022/03/10 08:03:22;;;;;;;14.18;7.22;;;;;;;-0.61;66.54;102677.25;1734380;81;28223;-76
2022/03/10 08:05:50;;;;;;;10.53;5.62;;;;;;;-0.50;66.11;102680.28;1745428;81;25733;-77
2022/03/10 08:08:17;;;;;;;10.98;5.65;;;;;;;-0.44;64.62;102685.28;1735578;80;25696;-76
2022/03/10 08:10:43;;;;;;;12.68;6.70;;;;;;;-0.42;63.50;102683.89;1743106;81;26542;-76
2022/03/10 08:13:10;;;;;;;15.83;7.45;;;;;;;-0.38;64.60;102688.09;1737613;81;25882;-76
2022/03/10 08:15:36;;;;;;;11.53;6.62;;;;;;;-0.27;65.45;102690.67;1739807;81;28371;-76
2022/03/10 08:18:03;;;;;;;13.20;6.75;;;;;;;-0.22;64.48;102683.44;1743839;80;26412;-76
2022/03/10 08:20:29;;;;;;;10.95;6.22;;;;;;;-0.12;64.01;102682.56;1740325;81;25819;-76
2022/03/10 08:22:56;;;;;;;16.73;8.35;;;;;;;-0.09;64.20;102684.62;1743688;81;26577;-76
2022/03/10 08:25:22;;;;;;;12.13;6.97;;;;;;;-0.02;64.23;102683.85;1739200;81;25808;-76
2022/03/10 08:27:48;;;;;;;13.15;6.55;;;;;;;0.07;63.00;102683.45;1738860;80;27508;-76
2022/03/10 08:30:16;;;;;;;12.25;6.25;;;;;;;0.14;62.53;102682.71;1738605;81;25316;-76
2022/03/10 08:32:44;;;;;;;13.03;6.25;;;;;;;0.16;62.30;102683.04;1735891;81;26440;-76
2022/03/10 08:35:11;;;;;;;13.05;6.10;;;;;;;0.21;62.39;102685.47;1740806;81;26580;-76
2022/03/10 08:37:38;;;;;;;9.90;6.35;;;;;;;0.26;62.05;102687.41;1739045;81;25403;-75
2022/03/10 08:40:06;;;;;;;10.70;6.12;;;;;;;0.28;60.99;102690.38;1744077;81;27435;-77
2022/03/10 08:42:32;;;;;;;9.30;4.70;;;;;;;0.33;61.11;102687.08;1740345;81;25931;-78
2022/03/10 08:44:59;;;;;;;10.03;5.65;;;;;;;0.39;59.62;102694.70;1743327;81;25891;-75
2022/03/10 08:47:28;;;;;;;11.63;6.17;;;;;;;0.40;57.40;102674.47;1740853;80;26590;-76
2022/03/10 08:49:55;;;;;;;9.73;5.87;;;;;;;0.37;57.34;102687.33;1741359;81;25765;-76
2022/03/10 08:52:21;;;;;;;7.53;5.40;;;;;;;0.41;58.87;102683.62;1743914;81;28250;-78
2022/03/10 08:54:48;;;;;;;15.32;6.17;;;;;;;0.50;58.89;102682.34;1747590;81;25965;-76
2022/03/10 08:57:14;;;;;;;10.95;5.33;;;;;;;0.57;58.57;102678.04;1747780;81;25773;-77
2022/03/10 08:59:41;;;;;;;7.55;5.45;;;;;;;0.64;57.39;102683.39;1749238;81;26600;-76
2022/03/10 09:02:07;;;;;;;8.18;4.62;;;;;;;0.69;57.59;102680.08;1745917;81;25764;-76
2022/03/10 09:04:34;;;;;;;6.80;4.28;;;;;;;0.74;57.38;102686.00;1750360;81;28272;-76
2022/03/10 09:07:01;;;;;;;11.05;5.20;;;;;;;0.80;56.83;102686.16;1748647;80;25931;-76
2022/03/10 09:09:28;;;;;;;13.32;6.17;;;;;;;0.85;56.88;102684.63;1749719;81;26589;-75
2022/03/10 09:11:55;;;;;;;27.25;11.00;;;;;;;0.94;56.37;102686.34;1745753;81;25736;-77
2022/03/10 09:14:21;;;;;;;11.50;6.15;;;;;;;1.01;55.64;102679.84;1752615;81;25908;-76
2022/03/10 09:16:47;;;;;;;10.43;6.90;;;;;;;1.06;54.79;102675.66;1749363;80;27520;-75
2022/03/10 09:19:13;;;;;;;10.55;5.33;;;;;;;1.09;55.69;102679.00;1747502;81;26252;-75
2022/03/10 09:21:40;;;;;;;22.87;11.03;;;;;;;1.16;55.63;102678.23;1744947;81;25904;-78
2022/03/10 09:24:07;;;;;;;15.88;8.15;;;;;;;1.23;55.60;102671.27;1743157;81;25868;-77
2022/03/10 09:26:33;;;;;;;15.40;7.95;;;;;;;1.28;55.47;102667.08;1749381;80;26053;-79
2022/03/10 09:28:59;;;;;;;10.90;6.33;;;;;;;1.34;55.00;102663.67;1752620;81;27527;-79
2022/03/10 09:31:25;;;;;;;5.92;3.50;;;;;;;1.42;54.53;102665.91;1748632;81;25939;-77
2022/03/10 09:33:52;;;;;;;6.50;3.70;;;;;;;1.46;53.14;102670.95;1752588;81;25785;-77
2022/03/10 09:36:18;;;;;;;8.75;4.75;;;;;;;1.49;52.38;102662.89;1754292;81;25994;-79
2022/03/10 09:38:44;;;;;;;7.97;4.05;;;;;;;1.49;53.11;102672.59;1746559;81;25763;-75
2022/03/10 09:41:11;;;;;;;6.80;4.75;;;;;;;1.53;52.86;102671.04;1747625;81;28203;-77
2022/03/10 09:43:38;;;;;;;7.05;4.12;;;;;;;1.58;51.16;102674.28;1746445;81;26236;-78
2022/03/10 09:46:08;;;;;;;5.97;3.37;;;;;;;1.56;51.12;102672.67;1749530;81;26588;-77
2022/03/10 09:48:36;;;;;;;10.53;4.62;;;;;;;1.62;50.20;102672.36;1749776;80;25768;-78
2022/03/10 09:51:03;;;;;;;9.45;3.75;;;;;;;1.58;50.20;102670.31;1744998;81;25770;-80
2022/03/10 09:53:31;;;;;;;8.33;3.70;;;;;;;1.55;50.60;102672.27;1746601;81;27466;-82
2022/03/10 09:55:58;;;;;;;7.15;4.35;;;;;;;1.62;49.94;102669.72;1745329;81;26658;-77
2022/03/10 09:58:24;;;;;;;7.22;3.42;;;;;;;1.65;48.96;102670.03;1746839;81;26547;-76
2022/03/10 10:01:04;;;;;;;6.50;3.42;;;;;;;1.68;49.20;102676.45;1749262;81;25785;-76
2022/03/10 10:03:30;;;;;;;6.17;3.83;;;;;;;1.72;47.38;102680.19;1741139;81;25804;-77
2022/03/10 10:05:59;;;;;;;7.62;4.05;;;;;;;1.78;49.12;102684.28;1742684;81;28358;-76
2022/03/10 10:08:27;;;;;;;6.03;3.47;;;;;;;1.85;48.50;102691.83;1746176;81;26022;-76
2022/03/10 10:10:56;;;;;;;12.88;4.05;;;;;;;1.87;47.69;102695.70;1745027;81;25831;-76
2022/03/10 10:13:32;;;;;;;8.73;3.72;;;;;;;1.80;46.81;102694.30;1746964;81;25795;-76
2022/03/10 10:16:03;;;;;;;6.35;3.70;;;;;;;1.73;47.09;102697.76;1748010;81;25898;-76
2022/03/10 10:18:30;;;;;;;7.78;3.77;;;;;;;1.79;46.89;102700.53;1747160;81;28289;-77
2022/03/10 10:20:57;;;;;;;6.50;3.72;;;;;;;1.81;46.41;102697.34;1748159;81;25833;-75
2022/03/10 10:23:28;;;;;;;7.60;3.17;;;;;;;1.80;45.78;102701.77;1732152;81;36346;-76
2022/03/10 10:25:59;;;;;;;6.03;2.55;;;;;;;1.83;46.45;102685.77;1745907;81;26405;-77
2022/03/10 10:28:32;;;;;;;8.13;3.15;;;;;;;1.85;43.92;102690.50;1718465;82;26125;-76
2022/03/10 10:31:17;;;;;;;6.15;2.87;;;;;;;1.86;44.31;102692.69;1699360;84;27529;-75
2022/03/10 10:34:09;;;;;;;6.53;4.30;;;;;;;1.88;45.41;102695.61;1695679;84;25884;-75
2022/03/10 10:36:37;;;;;;;5.10;3.20;;;;;;;1.99;45.83;102684.02;1745447;81;25399;-76
2022/03/10 10:39:18;;;;;;;9.33;3.67;;;;;;;2.04;45.07;102687.28;1748080;81;26623;-76
2022/03/10 10:41:47;;;;;;;4.95;3.20;;;;;;;2.08;45.83;102695.43;1748715;81;26509;-77
2022/03/10 10:44:25;;;;;;;6.35;3.95;;;;;;;2.10;46.15;102694.02;1743901;81;28452;-78
2022/03/10 10:46:58;;;;;;;5.00;2.95;;;;;;;2.14;45.56;102691.13;1749751;81;26004;-77
2022/03/10 10:49:24;;;;;;;4.62;2.95;;;;;;;2.25;44.97;102695.38;1742836;81;25856;-76
2022/03/10 10:51:54;;;;;;;4.60;2.70;;;;;;;2.30;44.30;102690.71;1751260;81;25814;-77
2022/03/10 10:54:27;;;;;;;7.90;4.25;;;;;;;2.31;41.43;102688.44;1747745;81;25903;-76
2022/03/10 10:56:57;;;;;;;4.85;3.25;;;;;;;2.29;42.47;102688.98;1748345;80;28292;-76
2022/03/10 10:59:38;;;;;;;5.53;3.62;;;;;;;2.30;43.87;102696.00;1752233;81;25744;-76
2022/03/10 11:02:21;;;;;;;6.55;3.22;;;;;;;2.35;44.29;102697.08;1743035;81;25843;-77
2022/03/10 11:04:51;;;;;;;6.22;3.47;;;;;;;2.40;44.28;102690.19;1740679;81;26178;-76
2022/03/10 11:07:21;;;;;;;4.92;3.00;;;;;;;2.47;43.74;102693.75;1748199;81;25729;-75
2022/03/10 11:09:49;;;;;;;5.80;3.30;;;;;;;2.54;44.18;102690.30;1747595;81;28281;-77
2022/03/10 11:12:18;;;;;;;7.17;3.72;;;;;;;2.62;43.11;102688.08;1748985;81;25977;-76
2022/03/10 11:14:47;;;;;;;6.17;3.52;;;;;;;2.68;43.48;102685.09;1742493;81;25699;-77
2022/03/10 11:17:17;;;;;;;5.25;3.30;;;;;;;2.68;42.07;102689.92;1748296;80;26538;-77
2022/03/10 11:19:47;;;;;;;5.53;3.30;;;;;;;2.70;42.12;102689.36;1747786;81;25974;-77
2022/03/10 11:22:56;;;;;;;15.65;5.40;;;;;;;2.75;43.72;102691.76;1751325;81;28249;-78
2022/03/10 11:25:44;;;;;;;6.53;4.05;;;;;;;2.79;42.15;102684.03;1743857;81;25904;-76
2022/03/10 11:28:18;;;;;;;7.40;4.60;;;;;;;2.77;43.51;102683.27;1748493;80;25875;-75
2022/03/10 11:30:51;;;;;;;10.78;6.80;;;;;;;2.84;45.10;102681.53;1747864;81;26598;-76